• Join FlightAware (Why Join?)
  • Login
  • US Flag 
10:14AM EDT


 

Airport Tracker/Info


-or-


 

Live Flight TrackerFlight Track Log ✈ N45AR ✈ 01-May-2013 ✈ KBGR - KCLE

Flight Track Log - Related Links

Times and Time Zones

All times are in EDT time to prevent confusion due to time zone crossing. See the N45AR flight status page for this flight to view local times or setup timezone preferences in your user account.

Time Position Orientation Groundspeed Altitude Reporting Facility
EDT Latitude Longitude Course Direction KTS MPH feet Rate Location/Type
05:56AM 44.8117 -68.9814 258° West 164 189 4,700  Level Boston Center
05:57AM 44.7928 -69.0497 249° West 176 203 6,400 1,920 Climbing Boston Center
05:58AM 44.7742 -69.1208 250° West 181 208 8,600 2,160 Climbing Boston Center
05:59AM 44.7553 -69.1922 250° West 186 214 10,800 2,100 Climbing Boston Center
06:00AM 44.6890 -69.3551 254° West  Level FlightAware Approximate
06:00AM 44.7364 -69.2633 250° West 191 220 12,800  Level Boston Center
06:01AM 44.6735 -69.4473 258° West  Level FlightAware Approximate
06:01AM 44.7194 -69.3344 251° West 191 220 15,000  Level Boston Center
06:02AM 44.7006 -69.4056 250° West 191 220 16,000 480 Climbing Boston Center
06:03AM 44.6800 -69.4914 251° West 211 243 16,000  Level Boston Center
06:04AM 44.6614 -69.5856 255° West 235 270 16,000  Level Boston Center
06:05AM 44.6428 -69.6769 254° West 248 285 16,000  Level Boston Center
06:06AM 44.6261 -69.7625 255° West 248 285 16,000  Level Boston Center
06:07AM 44.6053 -69.8567 253° West 248 285 16,000  Level Boston Center
06:08AM 44.5886 -69.9478 256° West 248 285 16,000  Level Boston Center
06:09AM 44.5678 -70.0536 255° West 248 285 16,000  Level Boston Center
06:10AM 44.5469 -70.1475 253° West 248 285 16,000  Level Boston Center
06:11AM 44.5278 -70.2417 254° West 248 285 16,000  Level Boston Center
06:12AM 44.5089 -70.3383 255° West 248 285 16,000  Level Boston Center
06:13AM 44.4894 -70.4206 252° West 248 285 16,000  Level Boston Center
06:14AM 44.4703 -70.5114 254° West 248 285 16,000  Level Boston Center
06:15AM 44.4511 -70.6167 256° West 248 285 16,000  Level Boston Center
06:16AM 44.4317 -70.7133 254° West 248 285 16,000  Level Boston Center
06:17AM 44.4122 -70.8039 253° West 248 285 16,000  Level Boston Center
06:18AM 44.3906 -70.8975 252° West 248 285 16,000  Level Boston Center
06:19AM 44.3708 -70.9881 253° West 248 285 16,000  Level Boston Center
06:20AM 44.3514 -71.0842 254° West 248 285 16,000  Level Boston Center
06:21AM 44.3314 -71.1661 251° West 248 285 16,000  Level Boston Center
06:22AM 44.3136 -71.2592 255° West 248 285 16,000  Level Boston Center
06:23AM 44.2936 -71.3494 253° West 248 285 16,000  Level Boston Center
06:24AM 44.2717 -71.4428 252° West 248 285 16,000  Level Boston Center
06:25AM 44.2536 -71.5358 255° West 248 285 16,000  Level Boston Center
06:26AM 44.2314 -71.6289 252° West 248 285 16,000  Level Boston Center
06:27AM 44.2072 -71.7392 253° West 248 285 16,000  Level Boston Center
06:28AM 44.1889 -71.8322 255° West 248 285 16,000  Level Boston Center
06:29AM 44.1644 -71.9394 252° West 253 291 16,000  Level Boston Center
06:30AM 44.1439 -72.0292 252° West 253 291 16,000  Level Boston Center
06:31AM 44.1233 -72.1219 253° West 253 291 16,000  Level Boston Center
06:32AM 44.1006 -72.2147 251° West 253 291 16,000  Level Boston Center
06:33AM 44.0800 -72.2986 251° West 253 291 16,000  Level Boston Center
06:34AM 44.0592 -72.3881 252° West 253 291 16,000  Level Boston Center
06:35AM 44.0406 -72.4864 255° West 253 291 16,000  Level Boston Center
06:36AM 44.0175 -72.5786 251° West 253 291 16,000 -60 Level Boston Center
06:37AM 43.9944 -72.6711 251° West 258 297 15,900 -60 Descending Boston Center
06:38AM 43.9753 -72.7633 254° West 258 297 15,900  Level Boston Center
06:39AM 43.9542 -72.8583 253° West 258 297 15,900  Level Boston Center
06:40AM 43.9311 -72.9503 251° West 258 297 15,900  Level Boston Center
06:41AM 43.9056 -73.0539 251° West 258 297 15,900  Level Boston Center
06:42AM 43.8861 -73.1458 254° West 258 297 15,900  Level Boston Center
06:43AM 43.8647 -73.2406 253° West 263 303 15,900  Level Boston Center
06:44AM 43.8411 -73.3325 250° West 263 303 15,900  Level Boston Center
06:45AM 43.8175 -73.4269 251° West 268 308 15,900  Level Boston Center
06:46AM 43.7978 -73.5186 253° West 268 308 15,900  Level Boston Center
06:47AM 43.7739 -73.6133 251° West 263 303 15,900  Level Boston Center
06:48AM 43.7522 -73.7047 252° West 263 303 15,900  Level Boston Center
06:49AM 43.7283 -73.7961 250° West 263 303 15,900  Level Boston Center
06:51AM 43.7019 -73.9075 252° West 263 303 15,900  Level Boston Center
06:52AM 43.6797 -74.0017 252° West 263 303 15,900  Level Boston Center
06:53AM 43.6597 -74.0844 252° West 263 303 15,900  Level Boston Center
06:54AM 43.6314 -74.1842 249° West 263 303 15,900  Level Boston Center
06:55AM 43.6131 -74.2753 254° West 263 303 16,000  Climbing Boston Center
06:56AM 43.5886 -74.3692 250° West 263 303 16,000  Level Boston Center
06:57AM 43.5664 -74.4603 251° West 263 303 16,000  Level Boston Center
06:58AM 43.5417 -74.5569 251° West 263 303 16,000  Level Boston Center
06:59AM 43.5192 -74.6475 251° West 263 303 16,000  Level Boston Center
07:00AM 43.4964 -74.7414 252° West 263 303 16,000  Level Boston Center
07:01AM 43.4714 -74.8347 250° West 263 303 16,000  Level Boston Center
07:02AM 43.4486 -74.9283 251° West 263 303 16,000  Level Boston Center
07:03AM 43.4258 -75.0189 251° West 263 303 16,000  Level Boston Center
07:04AM 43.4008 -75.1122 250° West 263 303 16,000  Level Boston Center
07:05AM 43.3778 -75.2083 252° West 263 303 16,000  Level Boston Center
07:06AM 43.3525 -75.3014 250° West 269 310 16,000  Level Boston Center
07:07AM 43.3314 -75.3889 252° West 269 310 16,000  Level Boston Center
07:08AM 43.3061 -75.4817 250° West 264 304 16,000  Level Boston Center
07:09AM 43.2806 -75.5775 250° West 264 304 16,000  Level Boston Center
07:10AM 43.2569 -75.6733 251° West 264 304 16,000  Level Boston Center
07:11AM 43.2314 -75.7658 249° West 264 304 16,000  Level Boston Center
07:12AM 43.2056 -75.8642 250° West 269 310 16,000  Level Boston Center
07:13AM 43.1797 -75.9569 249° West 269 310 16,000  Level Boston Center
07:14AM 43.1333 -76.1361 251° West 259 298 16,000  Level Cleveland Center
07:15AM 43.1058 -76.2319 249° West 259 298 16,000  Level Cleveland Center
07:16AM 43.0803 -76.3275 250° West 259 298 16,000  Level Cleveland Center
07:17AM 43.0544 -76.4231 250° West 270 311 16,000  Level Cleveland Center
07:18AM 43.0286 -76.5186 250° West 275 316 16,000  Level Cleveland Center
07:19AM 43.0028 -76.6142 250° West 275 316 16,000  Level Cleveland Center
07:20AM 42.9806 -76.6922 249° West 275 316 16,000  Level Cleveland Center
07:21AM 42.9528 -76.7989 250° West 275 316 16,000  Level Cleveland Center
07:22AM 42.9244 -76.8942 248° West 275 316 16,000  Level Cleveland Center
07:23AM 42.8983 -76.9919 250° West 275 316 16,000  Level Cleveland Center
07:24AM 42.8719 -77.0842 249° West 270 311 16,000  Level Cleveland Center
07:25AM 42.8456 -77.1792 249° West 270 311 16,000  Level Cleveland Center
07:26AM 42.8192 -77.2711 249° West 270 311 16,000  Level Cleveland Center
07:27AM 42.7928 -77.3661 249° West 270 311 16,000  Level Cleveland Center
07:28AM 42.7661 -77.4608 249° West 270 311 16,000  Level Cleveland Center
07:29AM 42.7414 -77.5525 250° West 270 311 16,000  Level Cleveland Center
07:30AM 42.7167 -77.6414 249° West 270 311 16,000  Level Cleveland Center
07:31AM 42.6858 -77.7444 248° West 270 311 16,000 -60 Level Cleveland Center
07:32AM 42.6611 -77.8358 250° West 270 311 15,900 -60 Descending Cleveland Center
07:33AM 42.6339 -77.9247 247° West 270 311 15,900  Level Cleveland Center
07:34AM 42.6089 -78.0158 250° West 270 311 15,900  Level Cleveland Center
07:35AM 42.5817 -78.1103 249° West 270 311 15,900  Level Cleveland Center
07:36AM 42.5544 -78.1986 247° West 270 311 15,900  Level Cleveland Center
07:37AM 42.5272 -78.2925 249° West 270 311 15,900  Level Cleveland Center
07:38AM 42.5017 -78.3836 249° West 270 311 15,900  Level Cleveland Center
07:39AM 42.4744 -78.4775 249° West 270 311 15,900  Level Cleveland Center
07:40AM 42.4469 -78.5686 248° West 270 311 16,000  Climbing Cleveland Center
07:41AM 42.4192 -78.6622 248° West 270 311 16,000  Level Cleveland Center
07:42AM 42.3914 -78.7531 248° West 270 311 16,000  Level Cleveland Center
07:43AM 42.3639 -78.8436 248° West 270 311 16,000  Level Cleveland Center
07:44AM 42.3378 -78.9286 247° West 270 311 16,000  Level Cleveland Center
07:45AM 42.3100 -79.0192 247° West 270 311 16,000  Level Cleveland Center
07:46AM 42.2819 -79.1125 248° West 270 311 16,000  Level Cleveland Center
07:47AM 42.2539 -79.2031 247° West 270 311 16,000  Level Cleveland Center
07:48AM 42.2258 -79.2933 247° West 270 311 16,000  Level Cleveland Center
07:49AM 42.1997 -79.3864 249° West 270 311 16,000  Level Cleveland Center
07:50AM 42.1714 -79.4767 247° West 270 311 16,000  Level Cleveland Center
07:51AM 42.1431 -79.5667 247° West 270 311 16,000  Level Cleveland Center
07:52AM 42.1147 -79.6567 247° West 270 311 16,000  Level Cleveland Center
07:53AM 42.0883 -79.7494 249° West 270 311 16,000  Level Cleveland Center
07:54AM 42.0597 -79.8364 246° West 270 311 16,000  Level Cleveland Center
07:55AM 42.0292 -79.9375 248° West 270 311 16,000  Level Cleveland Center
07:56AM 42.0003 -80.0300 247° West 270 311 16,000  Level Cleveland Center
07:57AM 41.9717 -80.1222 247° West 270 311 16,000  Level Cleveland Center
07:58AM 41.9428 -80.2119 247° West 270 311 16,000  Level Cleveland Center
07:59AM 41.9158 -80.2931 246° West 270 311 16,000  Level Cleveland Center
08:00AM 41.8869 -80.3853 247° West 270 311 16,000  Level Cleveland Center
08:01AM 41.8619 -80.4744 249° West 270 311 16,000  Level Cleveland Center
08:02AM 41.8308 -80.5664 246° West 270 311 16,000 -120 Level Cleveland Center
08:03AM 41.8058 -80.6472 247° West 265 305 15,800 -360 Descending Cleveland Center
08:04AM 41.7744 -80.7392 245° Southwest 255 293 15,300 -600 Descending Cleveland Center
08:05AM 41.7639 -80.7781 250° West 245 282 15,000 -840 Descending Cleveland Center
08:05AM 41.7472 -80.8253 245° Southwest 255 293 14,500 -720 Descending Cleveland Center
08:06AM 41.7325 -80.8697 246° West 252 290 14,200 -600 Descending Cleveland Center
08:06AM 41.7178 -80.9197 248° West 255 293 13,900 -600 Descending Cleveland Center
08:07AM 41.7072 -80.9558 249° West 250 288 13,600 -600 Descending Cleveland Center
08:07AM 41.6903 -81.0031 244° Southwest 255 293 13,300 -540 Descending Cleveland Center
08:08AM 41.6694 -81.0333 227° Southwest 241 277 13,100 -720 Descending Cleveland Center
08:08AM 41.6381 -81.0611 213° Southwest 244 281 12,600 -1,140 Descending Cleveland Center
08:09AM 41.6108 -81.0858 214° Southwest 254 292 12,000 -1,140 Descending Cleveland Center
08:09AM 41.5772 -81.1106 209° Southwest 250 288 11,500 -900 Descending Cleveland Center
08:10AM 41.5500 -81.1353 214° Southwest 257 296 11,100 -900 Descending Cleveland Center
08:10AM 41.5208 -81.1656 218° Southwest 260 299 10,600 -1,320 Descending Cleveland Center
08:11AM 41.5100 -81.2097 252° West 245 282 9,800 -1,440 Descending Cleveland Center
08:11AM 41.5036 -81.2514 258° West 237 273 9,200 -1,200 Descending Cleveland Center
08:12AM 41.4969 -81.2983 259° West 237 273 8,600 -1,140 Descending Cleveland Center
08:12AM 41.4906 -81.3372 258° West 237 273 8,100 -1,140 Descending Cleveland Center
08:13AM 41.4839 -81.3814 259° West 236 272 7,500 -1,140 Descending Cleveland Center
08:13AM 41.4817 -81.4203 266° West 237 273 7,000 -1,140 Descending Cleveland Center
08:14AM 41.4897 -81.4619 284° West 209 241 6,400 -1,140 Descending Cleveland Center
08:14AM 41.4997 -81.4953 292° West 221 254 5,900 -1,140 Descending Cleveland Center
08:15AM 41.5058 -81.5342 282° West 205 236 5,300 -1,020 Descending Cleveland Center
08:16AM 41.5156 -81.6064 280° West 197 227 4,400 -720 Descending Cleveland Center
08:17AM 41.5192 -81.6758 274° West 186 214 3,900 -720 Descending Cleveland Center
08:18AM 41.4872 -81.7278 231° Southwest 192 221 3,000 -1,020 Descending Cleveland Center
08:19AM 41.4514 -81.7828 229° Southwest 183 211 1,900 -900 Descending Cleveland Center
08:20AM 41.4281 -81.8183 229° Southwest 107 123 1,300 -600 Descending Cleveland Center
08:22AM 41.4000 -81.8500 257° West  Level FlightAware Approximate
08:29AM 41.4094 -81.8547 257° West  Level Estimated